PWSweather.com
Personal Weather Stations
Station Observations
AC5JC
Greenleaf Peninsula, Waco, Waco, TX 76710

Greenleaf Peninsula, WacoWaco, TX 76710

Lat: 31.565, Lon: -97.198

Elevation: 570

Station Type: Ambient WS-1400IP

http://ac5jc.dyndns.org

Latest ConditionsUpdated 11:55:00 AM CDT Sunday, Sep 23, 2018
Currently Today's Max Today's Min Today's Average
Temperature 72.0°F22.2°C 72.1°F22.3°C 68.9°F20.5°C 69.9°F21.1°C
Dew Point 66.9°F19.4°C 68.6°F20.3°C 66.1°F18.9°C 67.7°F19.8°C
Winds 0.7 mph N1.1 kmh N 4.3 mph -6.9 kmh - - 1.1 mph 1.8 kmh
Wind Gusts 2.5 mph4.0 kmh 7.4 mph11.9 kmh - -
Humidity 84% 95% 84% 93%
Pressure 29.36 in994.2 mb 29.36 in994.2 mb 29.29 in991.9 mb -
Hour Temp Dew Point Humidity Winds Wind Gusts Pressure Precip Precip Rate Daily Precip Total
11:55 AM 72.0°F22.2°C 66.9°F19.4°C 84% 0.7 mph N1.1 kmh N 2.5 mph4.0 kmh 29.36 in994.2 mb 0.00 in0.0 mm 0.00 in0.0 mm 0.00 in0.0 mm
11:50 AM 72.1°F22.3°C 67.0°F19.4°C 84% 0.1 mph WNW0.2 kmh WNW 2.5 mph4.0 kmh 29.35 in993.9 mb 0.00 in0.0 mm 0.00 in0.0 mm 0.00 in0.0 mm
11:45 AM 71.4°F21.9°C 66.1°F18.9°C 84% 1.4 mph N2.3 kmh N 4.9 mph7.9 kmh 29.36 in994.2 mb 0.00 in0.0 mm 0.00 in0.0 mm 0.00 in0.0 mm
11:40 AM 71.4°F21.9°C 66.3°F19.1°C 84% 0.3 mph NNW0.5 kmh NNW 2.5 mph4.0 kmh 29.36 in994.2 mb 0.00 in0.0 mm 0.00 in0.0 mm 0.00 in0.0 mm
11:35 AM 71.4°F21.9°C 66.6°F19.2°C 85% 0.7 mph NNW1.1 kmh NNW 2.5 mph4.0 kmh 29.36 in994.2 mb 0.00 in0.0 mm 0.00 in0.0 mm 0.00 in0.0 mm
11:30 AM 71.4°F21.9°C 66.6°F19.2°C 85% 2.0 mph NNW3.2 kmh NNW 4.9 mph7.9 kmh 29.36 in994.2 mb 0.00 in0.0 mm 0.00 in0.0 mm 0.00 in0.0 mm
11:25 AM 71.6°F22.0°C 67.0°F19.4°C 86% Calm Calm -- 29.36 in994.2 mb 0.00 in0.0 mm 0.00 in0.0 mm 0.00 in0.0 mm
11:20 AM 71.6°F22.0°C 67.2°F19.6°C 86% 0.3 mph N0.5 kmh N 2.5 mph4.0 kmh 29.36 in994.2 mb 0.00 in0.0 mm 0.00 in0.0 mm 0.00 in0.0 mm
11:15 AM 71.7°F22.1°C 67.4°F19.7°C 86% Calm Calm 2.5 mph4.0 kmh 29.36 in994.2 mb 0.00 in0.0 mm 0.00 in0.0 mm 0.00 in0.0 mm
11:10 AM 71.8°F22.1°C 67.7°F19.8°C 87% 0.7 mph NNW1.1 kmh NNW 2.5 mph4.0 kmh 29.36 in994.2 mb 0.00 in0.0 mm 0.00 in0.0 mm 0.00 in0.0 mm
11:05 AM 71.1°F21.7°C 67.4°F19.7°C 88% 0.6 mph NNW1.0 kmh NNW 4.9 mph7.9 kmh 29.36 in994.2 mb 0.00 in0.0 mm 0.00 in0.0 mm 0.00 in0.0 mm
11:00 AM 71.1°F21.7°C 67.4°F19.7°C 88% 0.2 mph NNW0.3 kmh NNW 2.5 mph4.0 kmh 29.36 in994.2 mb 0.00 in0.0 mm 0.00 in0.0 mm 0.00 in0.0 mm
10:55 AM 70.9°F21.6°C 67.5°F19.7°C 89% 1.0 mph NNE1.6 kmh NNE 2.5 mph4.0 kmh 29.36 in994.2 mb 0.00 in0.0 mm 0.00 in0.0 mm 0.00 in0.0 mm
10:50 AM 70.9°F21.6°C 67.5°F19.7°C 89% 1.0 mph NNW1.6 kmh NNW 4.9 mph7.9 kmh 29.36 in994.2 mb 0.00 in0.0 mm 0.00 in0.0 mm 0.00 in0.0 mm
10:45 AM 70.7°F21.5°C 67.3°F19.6°C 89% 1.3 mph N2.1 kmh N 4.9 mph7.9 kmh 29.36 in994.2 mb 0.00 in0.0 mm 0.00 in0.0 mm 0.00 in0.0 mm
10:40 AM 70.7°F21.5°C 67.3°F19.6°C 89% 1.2 mph NNW1.9 kmh NNW 2.5 mph4.0 kmh 29.36 in994.2 mb 0.00 in0.0 mm 0.00 in0.0 mm 0.00 in0.0 mm
10:35 AM 70.7°F21.5°C 67.5°F19.7°C 90% 0.3 mph NNW0.5 kmh NNW 2.5 mph4.0 kmh 29.36 in994.2 mb 0.00 in0.0 mm 0.00 in0.0 mm 0.00 in0.0 mm
10:30 AM 70.8°F21.6°C 67.7°F19.8°C 90% 1.4 mph N2.3 kmh N 4.9 mph7.9 kmh 29.35 in993.9 mb 0.00 in0.0 mm 0.00 in0.0 mm 0.00 in0.0 mm
10:25 AM 70.7°F21.5°C 67.8°F19.9°C 91% 3.0 mph N4.8 kmh N 4.9 mph7.9 kmh 29.35 in993.9 mb 0.00 in0.0 mm 0.00 in0.0 mm 0.00 in0.0 mm
10:20 AM 70.7°F21.5°C 67.9°F19.9°C 91% 2.4 mph NW3.9 kmh NW 4.9 mph7.9 kmh 29.35 in993.9 mb 0.00 in0.0 mm 0.00 in0.0 mm 0.00 in0.0 mm
10:15 AM 70.7°F21.5°C 68.0°F20.0°C 91% 3.0 mph N4.8 kmh N 4.9 mph7.9 kmh 29.35 in993.9 mb 0.00 in0.0 mm 0.00 in0.0 mm 0.00 in0.0 mm
10:10 AM 70.7°F21.5°C 68.3°F20.2°C 92% Calm Calm -- 29.35 in993.9 mb 0.00 in0.0 mm 0.00 in0.0 mm 0.00 in0.0 mm
10:05 AM 70.7°F21.5°C 68.6°F20.3°C 93% Calm Calm -- 29.34 in993.6 mb 0.00 in0.0 mm 0.00 in0.0 mm 0.00 in0.0 mm
10:00 AM 70.7°F21.5°C 68.6°F20.3°C 93% Calm Calm -- 29.35 in993.9 mb 0.00 in0.0 mm 0.00 in0.0 mm 0.00 in0.0 mm
09:40 AM 70.3°F21.3°C 68.5°F20.3°C 94% Calm Calm -- 29.34 in993.6 mb 0.00 in0.0 mm 0.00 in0.0 mm 0.00 in0.0 mm
09:35 AM 70.3°F21.3°C 68.5°F20.3°C 94% Calm Calm -- 29.34 in993.6 mb 0.00 in0.0 mm 0.00 in0.0 mm 0.00 in0.0 mm
09:30 AM 70.3°F21.3°C 68.5°F20.3°C 94% Calm Calm -- 29.34 in993.6 mb 0.00 in0.0 mm 0.00 in0.0 mm 0.00 in0.0 mm
09:25 AM 70.0°F21.1°C 68.2°F20.1°C 94% Calm Calm -- 29.34 in993.6 mb 0.00 in0.0 mm 0.00 in0.0 mm 0.00 in0.0 mm
09:20 AM 70.0°F21.1°C 68.2°F20.1°C 94% 0.3 mph NW0.5 kmh NW 2.5 mph4.0 kmh 29.34 in993.6 mb 0.00 in0.0 mm 0.00 in0.0 mm 0.00 in0.0 mm
09:15 AM 70.0°F21.1°C 68.2°F20.1°C 94% 0.9 mph W1.4 kmh W 4.9 mph7.9 kmh 29.33 in993.2 mb 0.00 in0.0 mm 0.00 in0.0 mm 0.00 in0.0 mm
09:10 AM 70.0°F21.1°C 68.2°F20.1°C 94% 0.8 mph W1.3 kmh W 4.9 mph7.9 kmh 29.34 in993.6 mb 0.00 in0.0 mm 0.00 in0.0 mm 0.00 in0.0 mm
09:05 AM 69.6°F20.9°C 67.8°F19.9°C 94% 0.3 mph NW0.5 kmh NW 2.5 mph4.0 kmh 29.33 in993.2 mb 0.00 in0.0 mm 0.00 in0.0 mm 0.00 in0.0 mm
09:00 AM 69.6°F20.9°C 68.0°F20.0°C 95% 4.3 mph NW6.9 kmh NW 7.4 mph11.9 kmh 29.33 in993.2 mb 0.00 in0.0 mm 0.00 in0.0 mm 0.00 in0.0 mm
08:55 AM 69.6°F20.9°C 68.0°F20.0°C 95% Calm Calm -- 29.34 in993.6 mb 0.00 in0.0 mm 0.00 in0.0 mm 0.00 in0.0 mm
08:50 AM 69.6°F20.9°C 68.0°F20.0°C 95% 0.5 mph NW0.8 kmh NW 2.5 mph4.0 kmh 29.33 in993.2 mb 0.00 in0.0 mm 0.00 in0.0 mm 0.00 in0.0 mm
08:45 AM 69.6°F20.9°C 68.1°F20.1°C 95% 0.5 mph NW0.8 kmh NW 2.5 mph4.0 kmh 29.34 in993.6 mb 0.00 in0.0 mm 0.00 in0.0 mm 0.00 in0.0 mm
08:40 AM 69.6°F20.9°C 67.9°F19.9°C 94% 0.5 mph WNW0.8 kmh WNW 4.9 mph7.9 kmh 29.33 in993.2 mb 0.00 in0.0 mm 0.00 in0.0 mm 0.00 in0.0 mm
08:35 AM 69.6°F20.9°C 68.0°F20.0°C 95% 0.1 mph W0.2 kmh W 2.5 mph4.0 kmh 29.33 in993.2 mb 0.00 in0.0 mm 0.00 in0.0 mm 0.00 in0.0 mm
08:30 AM 69.6°F20.9°C 68.1°F20.1°C 95% Calm Calm -- 29.33 in993.2 mb 0.00 in0.0 mm 0.00 in0.0 mm 0.00 in0.0 mm
08:25 AM 69.6°F20.9°C 68.0°F20.0°C 95% Calm Calm -- 29.33 in993.2 mb 0.00 in0.0 mm 0.00 in0.0 mm 0.00 in0.0 mm
08:20 AM 69.6°F20.9°C 68.0°F20.0°C 95% Calm Calm -- 29.32 in992.9 mb 0.00 in0.0 mm 0.00 in0.0 mm 0.00 in0.0 mm
08:15 AM 69.6°F20.9°C 68.0°F20.0°C 95% 1.3 mph NW2.1 kmh NW 4.9 mph7.9 kmh 29.32 in992.9 mb 0.00 in0.0 mm 0.00 in0.0 mm 0.00 in0.0 mm
08:10 AM 69.6°F20.9°C 68.0°F20.0°C 95% 1.9 mph NW3.1 kmh NW 4.9 mph7.9 kmh 29.32 in992.9 mb 0.00 in0.0 mm 0.00 in0.0 mm 0.00 in0.0 mm
08:05 AM 69.4°F20.8°C 67.9°F19.9°C 95% 1.6 mph WNW2.6 kmh WNW 4.9 mph7.9 kmh 29.32 in992.9 mb 0.00 in0.0 mm 0.00 in0.0 mm 0.00 in0.0 mm
08:00 AM 69.3°F20.7°C 67.7°F19.8°C 95% 0.6 mph NW1.0 kmh NW 2.5 mph4.0 kmh 29.32 in992.9 mb 0.00 in0.0 mm 0.00 in0.0 mm 0.00 in0.0 mm
07:55 AM 69.3°F20.7°C 67.8°F19.9°C 95% 2.3 mph WNW3.7 kmh WNW 4.9 mph7.9 kmh 29.32 in992.9 mb 0.00 in0.0 mm 0.00 in0.0 mm 0.00 in0.0 mm
07:50 AM 69.3°F20.7°C 67.8°F19.9°C 95% 1.0 mph NW1.6 kmh NW 2.5 mph4.0 kmh 29.31 in992.6 mb 0.00 in0.0 mm 0.00 in0.0 mm 0.00 in0.0 mm
07:45 AM 69.1°F20.6°C 67.7°F19.8°C 95% 1.1 mph NW1.8 kmh NW 2.5 mph4.0 kmh 29.32 in992.9 mb 0.00 in0.0 mm 0.00 in0.0 mm 0.00 in0.0 mm
07:40 AM 69.2°F20.7°C 67.7°F19.8°C 95% 1.6 mph N2.6 kmh N 4.9 mph7.9 kmh 29.31 in992.6 mb 0.00 in0.0 mm 0.00 in0.0 mm 0.00 in0.0 mm
07:35 AM 69.3°F20.7°C 67.8°F19.9°C 95% 0.8 mph NW1.3 kmh NW 2.5 mph4.0 kmh 29.32 in992.9 mb 0.00 in0.0 mm 0.00 in0.0 mm 0.00 in0.0 mm
07:30 AM 69.3°F20.7°C 67.8°F19.9°C 95% 0.7 mph NW1.1 kmh NW 2.5 mph4.0 kmh 29.31 in992.6 mb 0.00 in0.0 mm 0.00 in0.0 mm 0.00 in0.0 mm
07:25 AM 69.1°F20.6°C 67.7°F19.8°C 95% 0.8 mph NNW1.3 kmh NNW 2.5 mph4.0 kmh 29.32 in992.9 mb 0.00 in0.0 mm 0.00 in0.0 mm 0.00 in0.0 mm
07:20 AM 69.1°F20.6°C 67.6°F19.8°C 95% Calm Calm -- 29.32 in992.9 mb 0.00 in0.0 mm 0.00 in0.0 mm 0.00 in0.0 mm
07:15 AM 69.1°F20.6°C 67.6°F19.8°C 95% 0.8 mph WNW1.3 kmh WNW 2.5 mph4.0 kmh 29.31 in992.6 mb 0.00 in0.0 mm 0.00 in0.0 mm 0.00 in0.0 mm
07:10 AM 69.1°F20.6°C 67.6°F19.8°C 95% 0.4 mph WSW0.6 kmh WSW 2.5 mph4.0 kmh 29.31 in992.6 mb 0.00 in0.0 mm 0.00 in0.0 mm 0.00 in0.0 mm
07:05 AM 69.1°F20.6°C 67.6°F19.8°C 95% 1.0 mph NW1.6 kmh NW 4.9 mph7.9 kmh 29.31 in992.6 mb 0.00 in0.0 mm 0.00 in0.0 mm 0.00 in0.0 mm
07:00 AM 69.1°F20.6°C 67.6°F19.8°C 95% Calm Calm 2.5 mph4.0 kmh 29.31 in992.6 mb 0.00 in0.0 mm 0.00 in0.0 mm 0.00 in0.0 mm
06:55 AM 69.1°F20.6°C 67.6°F19.8°C 95% 0.2 mph NW0.3 kmh NW 2.5 mph4.0 kmh 29.31 in992.6 mb 0.00 in0.0 mm 0.00 in0.0 mm 0.00 in0.0 mm
06:50 AM 69.1°F20.6°C 67.6°F19.8°C 95% 0.5 mph NW0.8 kmh NW 4.9 mph7.9 kmh 29.31 in992.6 mb 0.00 in0.0 mm 0.00 in0.0 mm 0.00 in0.0 mm
06:45 AM 69.1°F20.6°C 67.6°F19.8°C 95% 1.3 mph NNW2.1 kmh NNW 4.9 mph7.9 kmh 29.31 in992.6 mb 0.00 in0.0 mm 0.00 in0.0 mm 0.00 in0.0 mm
06:40 AM 69.1°F20.6°C 67.6°F19.8°C 95% 1.1 mph NNW1.8 kmh NNW 2.5 mph4.0 kmh 29.31 in992.6 mb 0.00 in0.0 mm 0.00 in0.0 mm 0.00 in0.0 mm
06:35 AM 69.1°F20.6°C 67.6°F19.8°C 95% 1.7 mph N2.7 kmh N 2.5 mph4.0 kmh 29.31 in992.6 mb 0.00 in0.0 mm 0.00 in0.0 mm 0.00 in0.0 mm
06:30 AM 69.1°F20.6°C 67.6°F19.8°C 95% 0.9 mph NW1.4 kmh NW 2.5 mph4.0 kmh 29.31 in992.6 mb 0.00 in0.0 mm 0.00 in0.0 mm 0.00 in0.0 mm
06:25 AM 69.0°F20.6°C 67.5°F19.7°C 95% 0.8 mph NNW1.3 kmh NNW 4.9 mph7.9 kmh 29.30 in992.2 mb 0.00 in0.0 mm 0.00 in0.0 mm 0.00 in0.0 mm
06:20 AM 68.9°F20.5°C 67.4°F19.7°C 95% 0.7 mph NW1.1 kmh NW 4.9 mph7.9 kmh 29.31 in992.6 mb 0.00 in0.0 mm 0.00 in0.0 mm 0.00 in0.0 mm
06:15 AM 68.9°F20.5°C 67.4°F19.7°C 95% 0.3 mph NNW0.5 kmh NNW 2.5 mph4.0 kmh 29.31 in992.6 mb 0.00 in0.0 mm 0.00 in0.0 mm 0.00 in0.0 mm
06:10 AM 68.9°F20.5°C 67.4°F19.7°C 95% 1.6 mph NW2.6 kmh NW 4.9 mph7.9 kmh 29.30 in992.2 mb 0.00 in0.0 mm 0.00 in0.0 mm 0.00 in0.0 mm
06:05 AM 68.9°F20.5°C 67.4°F19.7°C 95% 0.2 mph NW0.3 kmh NW 2.5 mph4.0 kmh 29.30 in992.2 mb 0.00 in0.0 mm 0.00 in0.0 mm 0.00 in0.0 mm
06:00 AM 68.9°F20.5°C 67.4°F19.7°C 95% 0.7 mph NNW1.1 kmh NNW 4.9 mph7.9 kmh 29.30 in992.2 mb 0.00 in0.0 mm 0.00 in0.0 mm 0.00 in0.0 mm
05:55 AM 68.9°F20.5°C 67.4°F19.7°C 95% 1.7 mph NW2.7 kmh NW 4.9 mph7.9 kmh 29.30 in992.2 mb 0.00 in0.0 mm 0.00 in0.0 mm 0.00 in0.0 mm
05:50 AM 68.9°F20.5°C 67.4°F19.7°C 95% 1.0 mph NNW1.6 kmh NNW 2.5 mph4.0 kmh 29.30 in992.2 mb 0.00 in0.0 mm 0.00 in0.0 mm 0.00 in0.0 mm
05:45 AM 69.0°F20.6°C 67.5°F19.7°C 95% 0.1 mph W0.2 kmh W 2.5 mph4.0 kmh 29.30 in992.2 mb 0.00 in0.0 mm 0.00 in0.0 mm 0.00 in0.0 mm
05:40 AM 69.1°F20.6°C 67.6°F19.8°C 95% 0.8 mph NW1.3 kmh NW 4.9 mph7.9 kmh 29.30 in992.2 mb 0.00 in0.0 mm 0.00 in0.0 mm 0.00 in0.0 mm
05:35 AM 69.1°F20.6°C 67.6°F19.8°C 95% 0.6 mph NNW1.0 kmh NNW 2.5 mph4.0 kmh 29.30 in992.2 mb 0.00 in0.0 mm 0.00 in0.0 mm 0.00 in0.0 mm
05:30 AM 69.1°F20.6°C 67.6°F19.8°C 95% 0.3 mph NNW0.5 kmh NNW 2.5 mph4.0 kmh 29.29 in991.9 mb 0.00 in0.0 mm 0.00 in0.0 mm 0.00 in0.0 mm
05:25 AM 69.2°F20.7°C 67.7°F19.8°C 95% 1.2 mph N1.9 kmh N 7.4 mph11.9 kmh 29.30 in992.2 mb 0.00 in0.0 mm 0.00 in0.0 mm 0.00 in0.0 mm
05:20 AM 68.9°F20.5°C 67.4°F19.7°C 95% 2.2 mph NW3.5 kmh NW 4.9 mph7.9 kmh 29.29 in991.9 mb 0.00 in0.0 mm 0.00 in0.0 mm 0.00 in0.0 mm
05:15 AM 68.9°F20.5°C 67.4°F19.7°C 95% 1.8 mph NNW2.9 kmh NNW 4.9 mph7.9 kmh 29.30 in992.2 mb 0.00 in0.0 mm 0.00 in0.0 mm 0.00 in0.0 mm
05:10 AM 68.9°F20.5°C 67.4°F19.7°C 95% 0.3 mph NW0.5 kmh NW 2.5 mph4.0 kmh 29.29 in991.9 mb 0.00 in0.0 mm 0.00 in0.0 mm 0.00 in0.0 mm
05:05 AM 68.9°F20.5°C 67.4°F19.7°C 95% 1.0 mph NW1.6 kmh NW 4.9 mph7.9 kmh 29.30 in992.2 mb 0.00 in0.0 mm 0.00 in0.0 mm 0.00 in0.0 mm
05:00 AM 68.9°F20.5°C 67.4°F19.7°C 95% 3.8 mph NW6.1 kmh NW 7.4 mph11.9 kmh 29.30 in992.2 mb 0.00 in0.0 mm 0.00 in0.0 mm 0.00 in0.0 mm
04:55 AM 68.9°F20.5°C 67.4°F19.7°C 95% 0.3 mph W0.5 kmh W 2.5 mph4.0 kmh 29.30 in992.2 mb 0.00 in0.0 mm 0.00 in0.0 mm 0.00 in0.0 mm
04:50 AM 68.9°F20.5°C 67.2°F19.6°C 94% 0.3 mph NW0.5 kmh NW 4.9 mph7.9 kmh 29.30 in992.2 mb 0.00 in0.0 mm 0.00 in0.0 mm 0.00 in0.0 mm
04:45 AM 68.9°F20.5°C 67.1°F19.5°C 94% 1.3 mph W2.1 kmh W 4.9 mph7.9 kmh 29.30 in992.2 mb 0.00 in0.0 mm 0.00 in0.0 mm 0.00 in0.0 mm
04:40 AM 68.9°F20.5°C 67.1°F19.5°C 94% 0.2 mph NW0.3 kmh NW 2.5 mph4.0 kmh 29.30 in992.2 mb 0.00 in0.0 mm 0.00 in0.0 mm 0.00 in0.0 mm
04:35 AM 68.9°F20.5°C 67.1°F19.5°C 94% 1.6 mph W2.6 kmh W 4.9 mph7.9 kmh 29.31 in992.6 mb 0.00 in0.0 mm 0.00 in0.0 mm 0.00 in0.0 mm
04:30 AM 68.9°F20.5°C 67.1°F19.5°C 94% 1.7 mph NW2.7 kmh NW 2.5 mph4.0 kmh 29.31 in992.6 mb 0.00 in0.0 mm 0.00 in0.0 mm 0.00 in0.0 mm
04:25 AM 69.0°F20.6°C 67.2°F19.6°C 94% 1.9 mph NNW3.1 kmh NNW 4.9 mph7.9 kmh 29.31 in992.6 mb 0.00 in0.0 mm 0.00 in0.0 mm 0.00 in0.0 mm
04:20 AM 69.2°F20.7°C 67.2°F19.6°C 93% 2.3 mph NW3.7 kmh NW 7.4 mph11.9 kmh 29.30 in992.2 mb 0.00 in0.0 mm 0.00 in0.0 mm 0.00 in0.0 mm
04:15 AM 69.1°F20.6°C 67.0°F19.4°C 93% 1.2 mph N1.9 kmh N 4.9 mph7.9 kmh 29.31 in992.6 mb 0.00 in0.0 mm 0.00 in0.0 mm 0.00 in0.0 mm
04:10 AM 69.1°F20.6°C 67.0°F19.4°C 93% 0.5 mph WNW0.8 kmh WNW 2.5 mph4.0 kmh 29.31 in992.6 mb 0.00 in0.0 mm 0.00 in0.0 mm 0.00 in0.0 mm
04:05 AM 69.2°F20.7°C 67.4°F19.7°C 94% 2.1 mph W3.4 kmh W 4.9 mph7.9 kmh 29.30 in992.2 mb 0.00 in0.0 mm 0.00 in0.0 mm 0.00 in0.0 mm
04:00 AM 69.4°F20.8°C 67.6°F19.8°C 94% 1.1 mph NW1.8 kmh NW 4.9 mph7.9 kmh 29.30 in992.2 mb 0.00 in0.0 mm 0.00 in0.0 mm 0.00 in0.0 mm
03:55 AM 69.4°F20.8°C 67.6°F19.8°C 94% 2.5 mph NW4.0 kmh NW 7.4 mph11.9 kmh 29.31 in992.6 mb 0.00 in0.0 mm 0.00 in0.0 mm 0.00 in0.0 mm
03:50 AM 69.4°F20.8°C 67.6°F19.8°C 94% 2.2 mph W3.5 kmh W 4.9 mph7.9 kmh 29.31 in992.6 mb 0.00 in0.0 mm 0.00 in0.0 mm 0.00 in0.0 mm
03:45 AM 69.4°F20.8°C 67.6°F19.8°C 94% 1.3 mph NW2.1 kmh NW 7.4 mph11.9 kmh 29.31 in992.6 mb 0.00 in0.0 mm 0.00 in0.0 mm 0.00 in0.0 mm
03:40 AM 69.6°F20.9°C 67.8°F19.9°C 94% 2.1 mph NW3.4 kmh NW 4.9 mph7.9 kmh 29.31 in992.6 mb 0.00 in0.0 mm 0.00 in0.0 mm 0.00 in0.0 mm
03:35 AM 69.8°F21.0°C 68.0°F20.0°C 94% 2.2 mph WNW3.5 kmh WNW 7.4 mph11.9 kmh 29.31 in992.6 mb 0.00 in0.0 mm 0.00 in0.0 mm 0.00 in0.0 mm
03:30 AM 69.8°F21.0°C 67.8°F19.9°C 93% 2.0 mph NW3.2 kmh NW 4.9 mph7.9 kmh 29.31 in992.6 mb 0.00 in0.0 mm 0.00 in0.0 mm 0.00 in0.0 mm
03:25 AM 69.9°F21.1°C 67.8°F19.9°C 93% 3.5 mph WNW5.6 kmh WNW 4.9 mph7.9 kmh 29.31 in992.6 mb 0.00 in0.0 mm 0.00 in0.0 mm 0.00 in0.0 mm
03:20 AM 69.8°F21.0°C 67.9°F19.9°C 94% 2.4 mph W3.9 kmh W 4.9 mph7.9 kmh 29.31 in992.6 mb 0.00 in0.0 mm 0.00 in0.0 mm 0.00 in0.0 mm
03:15 AM 69.8°F21.0°C 68.0°F20.0°C 94% 2.4 mph NW3.9 kmh NW 7.4 mph11.9 kmh 29.32 in992.9 mb 0.00 in0.0 mm 0.00 in0.0 mm 0.00 in0.0 mm
03:10 AM 69.8°F21.0°C 68.0°F20.0°C 94% 3.0 mph NW4.8 kmh NW 7.4 mph11.9 kmh 29.31 in992.6 mb 0.00 in0.0 mm 0.00 in0.0 mm 0.00 in0.0 mm
03:05 AM 69.8°F21.0°C 68.0°F20.0°C 94% 3.6 mph NW5.8 kmh NW 7.4 mph11.9 kmh 29.31 in992.6 mb 0.00 in0.0 mm 0.00 in0.0 mm 0.00 in0.0 mm
03:00 AM 69.8°F21.0°C 68.0°F20.0°C 94% 3.4 mph WNW5.5 kmh WNW 7.4 mph11.9 kmh 29.31 in992.6 mb 0.00 in0.0 mm 0.00 in0.0 mm 0.00 in0.0 mm
02:55 AM 69.8°F21.0°C 68.0°F20.0°C 94% 0.9 mph W1.4 kmh W 4.9 mph7.9 kmh 29.31 in992.6 mb 0.00 in0.0 mm 0.00 in0.0 mm 0.00 in0.0 mm
02:50 AM 69.8°F21.0°C 68.0°F20.0°C 94% 0.7 mph WNW1.1 kmh WNW 2.5 mph4.0 kmh 29.32 in992.9 mb 0.00 in0.0 mm 0.00 in0.0 mm 0.00 in0.0 mm
02:45 AM 69.8°F21.0°C 68.0°F20.0°C 94% 0.7 mph NW1.1 kmh NW 4.9 mph7.9 kmh 29.31 in992.6 mb 0.00 in0.0 mm 0.00 in0.0 mm 0.00 in0.0 mm
02:40 AM 70.0°F21.1°C 68.2°F20.1°C 94% 1.0 mph NW1.6 kmh NW 2.5 mph4.0 kmh 29.32 in992.9 mb 0.00 in0.0 mm 0.00 in0.0 mm 0.00 in0.0 mm
02:35 AM 70.0°F21.1°C 68.2°F20.1°C 94% 2.9 mph NNW4.7 kmh NNW 4.9 mph7.9 kmh 29.32 in992.9 mb 0.00 in0.0 mm 0.00 in0.0 mm 0.00 in0.0 mm
02:30 AM 70.0°F21.1°C 68.2°F20.1°C 94% 1.7 mph WNW2.7 kmh WNW 4.9 mph7.9 kmh 29.32 in992.9 mb 0.00 in0.0 mm 0.00 in0.0 mm 0.00 in0.0 mm
02:25 AM 70.0°F21.1°C 68.2°F20.1°C 94% 0.9 mph NW1.4 kmh NW 4.9 mph7.9 kmh 29.32 in992.9 mb 0.00 in0.0 mm 0.00 in0.0 mm 0.00 in0.0 mm
02:20 AM 69.8°F21.0°C 68.0°F20.0°C 94% 0.8 mph WNW1.3 kmh WNW 4.9 mph7.9 kmh 29.32 in992.9 mb 0.00 in0.0 mm 0.00 in0.0 mm 0.00 in0.0 mm
02:15 AM 69.8°F21.0°C 68.0°F20.0°C 94% 1.6 mph WNW2.6 kmh WNW 4.9 mph7.9 kmh 29.32 in992.9 mb 0.00 in0.0 mm 0.00 in0.0 mm 0.00 in0.0 mm
02:10 AM 69.8°F21.0°C 67.7°F19.8°C 93% 1.6 mph WNW2.6 kmh WNW 4.9 mph7.9 kmh 29.32 in992.9 mb 0.00 in0.0 mm 0.00 in0.0 mm 0.00 in0.0 mm
02:05 AM 69.8°F21.0°C 67.7°F19.8°C 93% 2.7 mph NW4.3 kmh NW 4.9 mph7.9 kmh 29.32 in992.9 mb 0.00 in0.0 mm 0.00 in0.0 mm 0.00 in0.0 mm
02:00 AM 70.1°F21.2°C 67.9°F19.9°C 93% 2.2 mph NW3.5 kmh NW 4.9 mph7.9 kmh 29.32 in992.9 mb 0.00 in0.0 mm 0.00 in0.0 mm 0.00 in0.0 mm
01:55 AM 70.2°F21.2°C 68.1°F20.1°C 93% 2.1 mph NW3.4 kmh NW 4.9 mph7.9 kmh 29.32 in992.9 mb 0.00 in0.0 mm 0.00 in0.0 mm 0.00 in0.0 mm
01:50 AM 70.2°F21.2°C 68.1°F20.1°C 93% 1.7 mph WNW2.7 kmh WNW 4.9 mph7.9 kmh 29.32 in992.9 mb 0.00 in0.0 mm 0.00 in0.0 mm 0.00 in0.0 mm
01:45 AM 70.3°F21.3°C 68.1°F20.1°C 93% 0.6 mph WSW1.0 kmh WSW 2.5 mph4.0 kmh 29.32 in992.9 mb 0.00 in0.0 mm 0.00 in0.0 mm 0.00 in0.0 mm
01:40 AM 70.3°F21.3°C 68.2°F20.1°C 93% 1.6 mph WSW2.6 kmh WSW 4.9 mph7.9 kmh 29.33 in993.2 mb 0.00 in0.0 mm 0.00 in0.0 mm 0.00 in0.0 mm
01:35 AM 70.3°F21.3°C 68.2°F20.1°C 93% 0.7 mph WSW1.1 kmh WSW 2.5 mph4.0 kmh 29.33 in993.2 mb 0.00 in0.0 mm 0.00 in0.0 mm 0.00 in0.0 mm
01:30 AM 70.3°F21.3°C 68.0°F20.0°C 92% Calm Calm 2.5 mph4.0 kmh 29.33 in993.2 mb 0.00 in0.0 mm 0.00 in0.0 mm 0.00 in0.0 mm
01:25 AM 70.3°F21.3°C 67.9°F19.9°C 92% 0.2 mph W0.3 kmh W 2.5 mph4.0 kmh 29.32 in992.9 mb 0.00 in0.0 mm 0.00 in0.0 mm 0.00 in0.0 mm
01:20 AM 70.2°F21.2°C 67.8°F19.9°C 92% 1.4 mph WSW2.3 kmh WSW 4.9 mph7.9 kmh 29.33 in993.2 mb 0.00 in0.0 mm 0.00 in0.0 mm 0.00 in0.0 mm
01:15 AM 70.2°F21.2°C 67.8°F19.9°C 92% 0.7 mph WSW1.1 kmh WSW 4.9 mph7.9 kmh 29.33 in993.2 mb 0.00 in0.0 mm 0.00 in0.0 mm 0.00 in0.0 mm
01:10 AM 70.3°F21.3°C 67.9°F19.9°C 92% 0.1 mph W0.2 kmh W 2.5 mph4.0 kmh 29.32 in992.9 mb 0.00 in0.0 mm 0.00 in0.0 mm 0.00 in0.0 mm
01:05 AM 70.3°F21.3°C 67.8°F19.9°C 92% 0.7 mph WSW1.1 kmh WSW 4.9 mph7.9 kmh 29.33 in993.2 mb 0.00 in0.0 mm 0.00 in0.0 mm 0.00 in0.0 mm
01:00 AM 70.4°F21.3°C 67.6°F19.8°C 91% 1.5 mph WNW2.4 kmh WNW 4.9 mph7.9 kmh 29.32 in992.9 mb 0.00 in0.0 mm 0.00 in0.0 mm 0.00 in0.0 mm
12:55 AM 70.5°F21.4°C 67.7°F19.8°C 91% 1.3 mph WNW2.1 kmh WNW 4.9 mph7.9 kmh 29.33 in993.2 mb 0.00 in0.0 mm 0.00 in0.0 mm 0.00 in0.0 mm
12:50 AM 70.5°F21.4°C 67.7°F19.8°C 91% 0.4 mph WNW0.6 kmh WNW 2.5 mph4.0 kmh 29.33 in993.2 mb 0.00 in0.0 mm 0.00 in0.0 mm 0.00 in0.0 mm
12:45 AM 70.7°F21.5°C 67.9°F19.9°C 91% 2.1 mph W3.4 kmh W 7.4 mph11.9 kmh 29.33 in993.2 mb 0.00 in0.0 mm 0.00 in0.0 mm 0.00 in0.0 mm
12:40 AM 70.7°F21.5°C 67.9°F19.9°C 91% 1.2 mph W1.9 kmh W 2.5 mph4.0 kmh 29.33 in993.2 mb 0.00 in0.0 mm 0.00 in0.0 mm 0.00 in0.0 mm
12:35 AM 70.7°F21.5°C 67.9°F19.9°C 91% 1.5 mph NNW2.4 kmh NNW 7.4 mph11.9 kmh 29.33 in993.2 mb 0.00 in0.0 mm 0.00 in0.0 mm 0.00 in0.0 mm
12:30 AM 70.7°F21.5°C 67.9°F19.9°C 91% 2.3 mph W3.7 kmh W 7.4 mph11.9 kmh 29.33 in993.2 mb 0.00 in0.0 mm 0.00 in0.0 mm 0.00 in0.0 mm
12:25 AM 70.7°F21.5°C 67.9°F19.9°C 91% Calm Calm -- 29.34 in993.6 mb 0.00 in0.0 mm 0.00 in0.0 mm 0.00 in0.0 mm
12:20 AM 70.7°F21.5°C 67.9°F19.9°C 91% 0.1 mph NNW0.2 kmh NNW 2.5 mph4.0 kmh 29.33 in993.2 mb 0.00 in0.0 mm 0.00 in0.0 mm 0.00 in0.0 mm
12:15 AM 70.7°F21.5°C 67.9°F19.9°C 91% Calm Calm -- 29.33 in993.2 mb 0.00 in0.0 mm 0.00 in0.0 mm 0.00 in0.0 mm
12:10 AM 70.7°F21.5°C 67.9°F19.9°C 91% 1.0 mph W1.6 kmh W 4.9 mph7.9 kmh 29.33 in993.2 mb 0.00 in0.0 mm 0.00 in0.0 mm 0.00 in0.0 mm
12:05 AM 70.7°F21.5°C 67.9°F19.9°C 91% 0.2 mph W0.3 kmh W 2.5 mph4.0 kmh 29.33 in993.2 mb 0.00 in0.0 mm 0.00 in0.0 mm 0.00 in0.0 mm
12:00 AM 70.8°F21.6°C 67.7°F19.8°C 90% 1.1 mph WSW1.8 kmh WSW 4.9 mph7.9 kmh 29.34 in993.6 mb 0.00 in0.0 mm 0.00 in0.0 mm 0.00 in0.0 mm